createdAt,value
2019-05-29T00:04:00.000Z,13.7
2019-05-29T00:09:00.000Z,13.7
2019-05-29T00:14:00.000Z,13.7
2019-05-29T00:19:00.000Z,13.7
2019-05-29T00:24:00.000Z,13.6
2019-05-29T00:29:00.000Z,13.6
2019-05-29T00:34:00.000Z,13.6
2019-05-29T00:39:00.000Z,13.6
2019-05-29T00:44:00.000Z,13.5
2019-05-29T00:49:00.000Z,13.5
2019-05-29T00:54:00.000Z,13.5
2019-05-29T00:59:00.000Z,13.5
2019-05-29T01:04:00.000Z,13.5
2019-05-29T01:09:00.000Z,13.5
2019-05-29T01:14:00.000Z,13.5
2019-05-29T01:19:00.000Z,13.5
2019-05-29T01:24:00.000Z,13.5
2019-05-29T01:29:00.000Z,13.4
2019-05-29T01:34:00.000Z,13.4
2019-05-29T01:39:00.000Z,13.4
2019-05-29T01:44:00.000Z,13.3
2019-05-29T01:50:00.000Z,13.3
2019-05-29T01:55:00.000Z,13.3
2019-05-29T02:00:00.000Z,13.2
2019-05-29T02:05:00.000Z,13.2
2019-05-29T02:10:00.000Z,13.1
2019-05-29T02:15:00.000Z,13.1
2019-05-29T02:20:00.000Z,13.0
2019-05-29T02:25:00.000Z,13.0
2019-05-29T02:30:00.000Z,12.9
2019-05-29T02:35:00.000Z,12.9
2019-05-29T02:40:00.000Z,12.9
2019-05-29T02:45:00.000Z,12.8
2019-05-29T02:50:00.000Z,12.8
2019-05-29T02:55:00.000Z,12.8
2019-05-29T03:00:00.000Z,12.8
2019-05-29T03:05:00.000Z,12.8
2019-05-29T03:10:00.000Z,12.8
2019-05-29T03:15:00.000Z,12.8
2019-05-29T03:21:00.000Z,12.8
2019-05-29T03:26:00.000Z,12.8
2019-05-29T03:31:00.000Z,12.8
2019-05-29T03:36:00.000Z,12.8
2019-05-29T03:41:00.000Z,12.8
2019-05-29T03:46:00.000Z,12.8
2019-05-29T03:51:00.000Z,12.9
2019-05-29T03:56:00.000Z,12.9
2019-05-29T04:01:00.000Z,12.9
2019-05-29T04:06:00.000Z,13.0
2019-05-29T04:11:00.000Z,13.1
2019-05-29T04:16:00.000Z,13.2
2019-05-29T04:22:00.000Z,13.2
2019-05-29T04:27:00.000Z,13.2
2019-05-29T04:32:00.000Z,13.2
2019-05-29T04:37:00.000Z,13.2
2019-05-29T04:42:00.000Z,13.2
2019-05-29T04:47:00.000Z,13.2
2019-05-29T04:52:00.000Z,13.1
2019-05-29T04:57:00.000Z,13.1
2019-05-29T05:02:00.000Z,13.1
2019-05-29T05:07:00.000Z,13.1
2019-05-29T05:12:00.000Z,13.1
2019-05-29T05:17:00.000Z,13.0
2019-05-29T05:22:00.000Z,13.0
2019-05-29T05:27:00.000Z,13.0
2019-05-29T05:32:00.000Z,13.0
2019-05-29T05:37:00.000Z,13.0
2019-05-29T05:42:00.000Z,13.0
2019-05-29T05:47:00.000Z,13.1
2019-05-29T05:52:00.000Z,13.1
2019-05-29T05:57:00.000Z,13.1
2019-05-29T06:02:00.000Z,13.0
2019-05-29T06:08:00.000Z,13.1
2019-05-29T06:13:00.000Z,13.1
2019-05-29T06:18:00.000Z,13.1
2019-05-29T06:23:00.000Z,13.1
2019-05-29T06:28:00.000Z,13.1
2019-05-29T06:33:00.000Z,13.2
2019-05-29T06:38:00.000Z,13.3
2019-05-29T06:43:00.000Z,13.3
2019-05-29T06:48:00.000Z,13.3
2019-05-29T06:53:00.000Z,13.3
2019-05-29T06:58:00.000Z,13.3
2019-05-29T07:03:00.000Z,13.3
2019-05-29T07:09:00.000Z,13.3
2019-05-29T07:14:00.000Z,13.2
2019-05-29T07:19:00.000Z,13.2
2019-05-29T07:24:00.000Z,13.2
2019-05-29T07:29:00.000Z,13.2
2019-05-29T07:34:00.000Z,13.1
2019-05-29T07:40:00.000Z,13.1
2019-05-29T07:45:00.000Z,13.2
2019-05-29T07:50:00.000Z,13.2
2019-05-29T07:55:00.000Z,13.2
2019-05-29T08:00:00.000Z,13.3
2019-05-29T08:05:00.000Z,13.3
2019-05-29T08:10:00.000Z,13.4
2019-05-29T08:15:00.000Z,13.4
2019-05-29T08:20:00.000Z,13.5
2019-05-29T08:25:00.000Z,13.5
2019-05-29T08:30:00.000Z,13.5
2019-05-29T08:35:00.000Z,13.4
2019-05-29T08:40:00.000Z,13.4
2019-05-29T08:45:00.000Z,13.4
2019-05-29T08:50:00.000Z,13.4
2019-05-29T08:55:00.000Z,13.4
2019-05-29T09:00:00.000Z,13.4
2019-05-29T09:05:00.000Z,13.4
2019-05-29T09:10:00.000Z,13.4
2019-05-29T09:15:00.000Z,13.5
2019-05-29T09:20:00.000Z,13.6
2019-05-29T09:26:00.000Z,13.6
2019-05-29T09:31:00.000Z,13.6
2019-05-29T09:36:00.000Z,13.6
2019-05-29T09:41:00.000Z,13.6
2019-05-29T09:46:00.000Z,13.6
2019-05-29T09:51:00.000Z,13.6
2019-05-29T09:56:00.000Z,13.6
2019-05-29T10:01:00.000Z,13.5
2019-05-29T10:06:00.000Z,13.5
2019-05-29T10:11:00.000Z,13.5
2019-05-29T10:16:00.000Z,13.5
2019-05-29T10:21:00.000Z,13.5
2019-05-29T10:26:00.000Z,13.6
2019-05-29T10:31:00.000Z,13.6
2019-05-29T10:36:00.000Z,13.6
2019-05-29T10:41:00.000Z,13.7
2019-05-29T10:46:00.000Z,13.8
2019-05-29T10:51:00.000Z,13.9
2019-05-29T10:57:00.000Z,13.8
2019-05-29T11:02:00.000Z,13.9
2019-05-29T11:07:00.000Z,13.9
2019-05-29T11:12:00.000Z,14.0
2019-05-29T11:17:00.000Z,13.9
2019-05-29T11:22:00.000Z,14.0
2019-05-29T11:27:00.000Z,14.0
2019-05-29T11:32:00.000Z,14.0
2019-05-29T11:37:00.000Z,14.1
2019-05-29T11:42:00.000Z,14.1
2019-05-29T11:47:00.000Z,14.2
2019-05-29T11:52:00.000Z,14.2
2019-05-29T11:57:00.000Z,14.3
2019-05-29T12:02:00.000Z,14.3
2019-05-29T12:07:00.000Z,14.4
2019-05-29T12:12:00.000Z,14.4
2019-05-29T12:17:00.000Z,14.4
2019-05-29T12:22:00.000Z,14.3
2019-05-29T12:28:00.000Z,14.3
2019-05-29T12:33:00.000Z,14.4
2019-05-29T12:38:00.000Z,14.3
2019-05-29T12:43:00.000Z,14.4
2019-05-29T12:48:00.000Z,14.4
2019-05-29T12:53:00.000Z,14.4
2019-05-29T12:58:00.000Z,14.4
2019-05-29T13:03:00.000Z,14.5
2019-05-29T13:08:00.000Z,14.6
2019-05-29T13:13:00.000Z,14.7
2019-05-29T13:18:00.000Z,14.8
2019-05-29T13:23:00.000Z,14.9
2019-05-29T13:28:00.000Z,15.0
2019-05-29T13:33:00.000Z,15.1
2019-05-29T13:38:00.000Z,15.2
2019-05-29T13:43:00.000Z,15.3
2019-05-29T13:48:00.000Z,15.4
2019-05-29T13:53:00.000Z,15.5
2019-05-29T13:59:00.000Z,15.6
2019-05-29T14:04:00.000Z,15.6
2019-05-29T14:09:00.000Z,15.6
2019-05-29T14:14:00.000Z,15.6
2019-05-29T14:19:00.000Z,15.5
2019-05-29T14:24:00.000Z,15.5
2019-05-29T14:29:00.000Z,15.5
2019-05-29T14:34:00.000Z,15.5
2019-05-29T14:39:00.000Z,15.5
2019-05-29T14:44:00.000Z,15.5
2019-05-29T14:49:00.000Z,15.5
2019-05-29T14:54:00.000Z,15.5
2019-05-29T14:59:00.000Z,15.4
2019-05-29T15:04:00.000Z,15.4
2019-05-29T15:09:00.000Z,15.3
2019-05-29T15:14:00.000Z,15.3
2019-05-29T15:19:00.000Z,15.2
2019-05-29T15:24:00.000Z,15.1
2019-05-29T15:30:00.000Z,15.0
2019-05-29T15:35:00.000Z,14.9
2019-05-29T15:40:00.000Z,14.9
2019-05-29T15:45:00.000Z,14.8
2019-05-29T15:50:00.000Z,14.8
2019-05-29T15:55:00.000Z,14.8
2019-05-29T16:00:00.000Z,14.7
2019-05-29T16:05:00.000Z,14.7
2019-05-29T16:10:00.000Z,14.6
2019-05-29T16:15:00.000Z,14.6
2019-05-29T16:20:00.000Z,14.6
2019-05-29T16:25:00.000Z,14.5
2019-05-29T16:30:00.000Z,14.5
2019-05-29T16:35:00.000Z,14.5
2019-05-29T16:40:00.000Z,14.5
2019-05-29T16:45:00.000Z,14.5
2019-05-29T16:50:00.000Z,14.4
2019-05-29T16:55:00.000Z,14.3
2019-05-29T17:00:00.000Z,14.3
2019-05-29T17:05:00.000Z,14.2
2019-05-29T17:10:00.000Z,14.2
2019-05-29T17:15:00.000Z,14.1
2019-05-29T17:20:00.000Z,14.1
2019-05-29T17:25:00.000Z,14.1
2019-05-29T17:31:00.000Z,14.0
2019-05-29T17:36:00.000Z,13.9
2019-05-29T17:41:00.000Z,13.9
2019-05-29T17:46:00.000Z,13.9
2019-05-29T17:51:00.000Z,13.9
2019-05-29T17:56:00.000Z,13.9
2019-05-29T18:01:00.000Z,13.9
2019-05-29T18:06:00.000Z,13.9
2019-05-29T18:11:00.000Z,13.9
2019-05-29T18:16:00.000Z,13.9
2019-05-29T18:21:00.000Z,13.9
2019-05-29T18:26:00.000Z,13.9
2019-05-29T18:31:00.000Z,13.9
2019-05-29T18:36:00.000Z,13.8
2019-05-29T18:41:00.000Z,13.8
2019-05-29T18:46:00.000Z,13.8
2019-05-29T18:51:00.000Z,13.8
2019-05-29T18:56:00.000Z,13.8
2019-05-29T19:02:00.000Z,13.7
2019-05-29T19:07:00.000Z,13.7
2019-05-29T19:12:00.000Z,13.7
2019-05-29T19:17:00.000Z,13.7
2019-05-29T19:22:00.000Z,13.7
2019-05-29T19:27:00.000Z,13.7
2019-05-29T19:32:00.000Z,13.7
2019-05-29T19:37:00.000Z,13.7
2019-05-29T19:42:00.000Z,13.7
2019-05-29T19:47:00.000Z,13.7
2019-05-29T19:52:00.000Z,13.7
2019-05-29T19:57:00.000Z,13.7
2019-05-29T20:02:00.000Z,13.7
2019-05-29T20:07:00.000Z,13.7
2019-05-29T20:12:00.000Z,13.7
2019-05-29T20:17:00.000Z,13.7
2019-05-29T20:23:00.000Z,13.7
2019-05-29T20:28:00.000Z,13.7
2019-05-29T20:33:00.000Z,13.7
2019-05-29T20:38:00.000Z,13.7
2019-05-29T20:43:00.000Z,13.7
2019-05-29T20:48:00.000Z,13.7
2019-05-29T20:53:00.000Z,13.7
2019-05-29T20:58:00.000Z,13.7
2019-05-29T21:03:00.000Z,13.6
2019-05-29T21:08:00.000Z,13.6
2019-05-29T21:13:00.000Z,13.6
2019-05-29T21:18:00.000Z,13.6
2019-05-29T21:23:00.000Z,13.6
2019-05-29T21:28:00.000Z,13.5
2019-05-29T21:33:00.000Z,13.5
2019-05-29T21:38:00.000Z,13.4
2019-05-29T21:43:00.000Z,13.4
2019-05-29T21:48:00.000Z,13.3
2019-05-29T21:53:00.000Z,13.2
2019-05-29T21:58:00.000Z,13.2
2019-05-29T22:04:00.000Z,13.0
2019-05-29T22:09:00.000Z,12.9
2019-05-29T22:14:00.000Z,12.7
2019-05-29T22:19:00.000Z,12.6
2019-05-29T22:24:00.000Z,12.6
2019-05-29T22:29:00.000Z,12.5
2019-05-29T22:34:00.000Z,12.5
2019-05-29T22:39:00.000Z,12.4
2019-05-29T22:44:00.000Z,12.3
2019-05-29T22:49:00.000Z,12.3
2019-05-29T22:54:00.000Z,12.2
2019-05-29T22:59:00.000Z,12.2
2019-05-29T23:04:00.000Z,12.1
2019-05-29T23:09:00.000Z,12.1
2019-05-29T23:14:00.000Z,12.1
2019-05-29T23:19:00.000Z,12.0
2019-05-29T23:24:00.000Z,12.0
2019-05-29T23:29:00.000Z,12.0
2019-05-29T23:34:00.000Z,12.0
2019-05-29T23:39:00.000Z,11.9
2019-05-29T23:44:00.000Z,11.9
2019-05-29T23:49:00.000Z,11.9
2019-05-29T23:54:00.000Z,11.9
2019-05-29T23:59:00.000Z,12.0
